Terminal Aerodrome Forecast
Issued by NWS

Home | Current Version | Previous Version | Text Only | Print | Product List | Glossary On
Versions: 1 2 3 4 5 6 7 8 9 10 11 12 13 14 15 16 17 18 19 20 21 22 23 24 25 26 27 28 29 30 31 32
783
FTUS44 KTSA 211125
TAFMLC
TAF
KMLC 211125Z 2112/2212 16010KT P6SM SCT015 BKN025 BKN250
      TEMPO 2112/2116 BKN015
     FM211600 18012G18KT P6SM BKN025
     FM211800 18011G17KT P6SM SCT050 SCT250
     FM220000 16007KT P6SM SCT250=

USA.gov is the U.S. government's official web portal to all federal, state and local government web resources and services.